sensor_id;sensor_type;location;lat;lon;timestamp;P1;durP1;ratioP1;P2;durP2;ratioP2
18623;SDS011;9441;51.420;7.036;2024-02-14T00:00:59;14.30;;;3.37;;
18623;SDS011;9441;51.420;7.036;2024-02-14T00:02:00;8.23;;;3.40;;
18623;SDS011;9441;51.420;7.036;2024-02-14T00:03:06;9.40;;;3.73;;
18623;SDS011;9441;51.420;7.036;2024-02-14T00:04:08;8.00;;;3.50;;
18623;SDS011;9441;51.420;7.036;2024-02-14T00:05:10;5.97;;;3.30;;
18623;SDS011;9441;51.420;7.036;2024-02-14T00:06:12;7.53;;;3.50;;
18623;SDS011;9441;51.420;7.036;2024-02-14T00:07:14;8.33;;;3.00;;
18623;SDS011;9441;51.420;7.036;2024-02-14T00:08:15;7.63;;;3.43;;
18623;SDS011;9441;51.420;7.036;2024-02-14T00:09:17;10.93;;;3.50;;
18623;SDS011;9441;51.420;7.036;2024-02-14T00:10:19;4.80;;;3.10;;
18623;SDS011;9441;51.420;7.036;2024-02-14T00:11:20;7.40;;;3.33;;
18623;SDS011;9441;51.420;7.036;2024-02-14T00:12:23;4.33;;;3.00;;
18623;SDS011;9441;51.420;7.036;2024-02-14T00:13:24;7.83;;;3.47;;
18623;SDS011;9441;51.420;7.036;2024-02-14T00:14:26;5.63;;;3.20;;
18623;SDS011;9441;51.420;7.036;2024-02-14T00:15:27;7.73;;;3.37;;
18623;SDS011;9441;51.420;7.036;2024-02-14T00:16:29;6.67;;;3.47;;
18623;SDS011;9441;51.420;7.036;2024-02-14T00:17:30;4.80;;;2.90;;
18623;SDS011;9441;51.420;7.036;2024-02-14T00:18:35;7.90;;;3.70;;
18623;SDS011;9441;51.420;7.036;2024-02-14T00:19:36;4.90;;;3.33;;
18623;SDS011;9441;51.420;7.036;2024-02-14T00:20:37;9.47;;;3.20;;
18623;SDS011;9441;51.420;7.036;2024-02-14T00:21:39;6.83;;;3.27;;
18623;SDS011;9441;51.420;7.036;2024-02-14T00:22:40;9.00;;;3.37;;
18623;SDS011;9441;51.420;7.036;2024-02-14T00:23:42;11.83;;;3.40;;
18623;SDS011;9441;51.420;7.036;2024-02-14T00:24:44;10.90;;;3.90;;
18623;SDS011;9441;51.420;7.036;2024-02-14T00:25:46;8.07;;;3.27;;
18623;SDS011;9441;51.420;7.036;2024-02-14T00:26:47;6.33;;;3.27;;
18623;SDS011;9441;51.420;7.036;2024-02-14T00:27:49;10.57;;;3.50;;
18623;SDS011;9441;51.420;7.036;2024-02-14T00:28:50;11.50;;;3.60;;
18623;SDS011;9441;51.420;7.036;2024-02-14T00:29:52;8.73;;;3.47;;
18623;SDS011;9441;51.420;7.036;2024-02-14T00:30:54;11.10;;;4.00;;
18623;SDS011;9441;51.420;7.036;2024-02-14T00:32:16;8.30;;;3.40;;
18623;SDS011;9441;51.420;7.036;2024-02-14T00:33:23;8.97;;;3.60;;
18623;SDS011;9441;51.420;7.036;2024-02-14T00:34:27;5.33;;;3.20;;
18623;SDS011;9441;51.420;7.036;2024-02-14T00:35:28;10.00;;;3.57;;
18623;SDS011;9441;51.420;7.036;2024-02-14T00:36:30;8.93;;;3.53;;
18623;SDS011;9441;51.420;7.036;2024-02-14T00:37:31;7.73;;;3.87;;
18623;SDS011;9441;51.420;7.036;2024-02-14T00:38:33;9.63;;;3.80;;
18623;SDS011;9441;51.420;7.036;2024-02-14T00:39:35;8.93;;;4.30;;
18623;SDS011;9441;51.420;7.036;2024-02-14T00:40:37;7.10;;;3.23;;
18623;SDS011;9441;51.420;7.036;2024-02-14T00:41:38;9.13;;;3.83;;
18623;SDS011;9441;51.420;7.036;2024-02-14T00:42:39;8.00;;;3.80;;
18623;SDS011;9441;51.420;7.036;2024-02-14T00:43:41;10.40;;;4.03;;
18623;SDS011;9441;51.420;7.036;2024-02-14T00:44:42;7.17;;;3.23;;
18623;SDS011;9441;51.420;7.036;2024-02-14T00:45:44;10.50;;;3.77;;
18623;SDS011;9441;51.420;7.036;2024-02-14T00:46:45;8.17;;;3.73;;
18623;SDS011;9441;51.420;7.036;2024-02-14T00:47:48;5.33;;;3.30;;
18623;SDS011;9441;51.420;7.036;2024-02-14T00:48:49;6.87;;;3.67;;
18623;SDS011;9441;51.420;7.036;2024-02-14T00:49:52;8.60;;;4.33;;
18623;SDS011;9441;51.420;7.036;2024-02-14T00:50:53;8.40;;;3.93;;
18623;SDS011;9441;51.420;7.036;2024-02-14T00:51:55;7.13;;;3.80;;
18623;SDS011;9441;51.420;7.036;2024-02-14T00:52:56;8.83;;;3.77;;
18623;SDS011;9441;51.420;7.036;2024-02-14T00:53:58;7.40;;;3.70;;
18623;SDS011;9441;51.420;7.036;2024-02-14T00:54:59;7.77;;;3.60;;
18623;SDS011;9441;51.420;7.036;2024-02-14T00:56:04;7.67;;;4.20;;
18623;SDS011;9441;51.420;7.036;2024-02-14T00:57:06;10.50;;;4.60;;
18623;SDS011;9441;51.420;7.036;2024-02-14T00:58:08;5.90;;;3.80;;
18623;SDS011;9441;51.420;7.036;2024-02-14T00:59:09;8.07;;;3.90;;
18623;SDS011;9441;51.420;7.036;2024-02-14T01:00:11;10.83;;;4.10;;
18623;SDS011;9441;51.420;7.036;2024-02-14T01:01:13;5.83;;;3.70;;
18623;SDS011;9441;51.420;7.036;2024-02-14T01:02:15;12.03;;;4.30;;
18623;SDS011;9441;51.420;7.036;2024-02-14T01:03:18;7.90;;;4.27;;
18623;SDS011;9441;51.420;7.036;2024-02-14T01:04:20;10.03;;;4.00;;
18623;SDS011;9441;51.420;7.036;2024-02-14T01:05:23;9.73;;;4.10;;
18623;SDS011;9441;51.420;7.036;2024-02-14T01:06:25;12.13;;;4.40;;
18623;SDS011;9441;51.420;7.036;2024-02-14T01:07:26;8.17;;;4.07;;
18623;SDS011;9441;51.420;7.036;2024-02-14T01:08:28;6.50;;;3.97;;
18623;SDS011;9441;51.420;7.036;2024-02-14T01:09:29;6.17;;;3.77;;
18623;SDS011;9441;51.420;7.036;2024-02-14T01:10:32;11.27;;;4.43;;
18623;SDS011;9441;51.420;7.036;2024-02-14T01:11:33;10.33;;;4.50;;
18623;SDS011;9441;51.420;7.036;2024-02-14T01:12:35;6.93;;;3.90;;
18623;SDS011;9441;51.420;7.036;2024-02-14T01:13:37;13.37;;;4.47;;
18623;SDS011;9441;51.420;7.036;2024-02-14T01:14:38;7.83;;;4.40;;
18623;SDS011;9441;51.420;7.036;2024-02-14T01:15:40;7.53;;;4.47;;
18623;SDS011;9441;51.420;7.036;2024-02-14T01:16:42;9.60;;;4.13;;
18623;SDS011;9441;51.420;7.036;2024-02-14T01:17:44;7.67;;;3.87;;
18623;SDS011;9441;51.420;7.036;2024-02-14T01:18:47;11.37;;;4.87;;
18623;SDS011;9441;51.420;7.036;2024-02-14T01:19:50;7.60;;;3.73;;
18623;SDS011;9441;51.420;7.036;2024-02-14T01:20:52;9.40;;;4.07;;
18623;SDS011;9441;51.420;7.036;2024-02-14T01:21:54;9.97;;;4.07;;
18623;SDS011;9441;51.420;7.036;2024-02-14T01:22:57;8.70;;;4.03;;
18623;SDS011;9441;51.420;7.036;2024-02-14T01:24:00;8.37;;;3.67;;
18623;SDS011;9441;51.420;7.036;2024-02-14T01:25:02;11.70;;;4.10;;
18623;SDS011;9441;51.420;7.036;2024-02-14T01:26:05;7.70;;;3.93;;
18623;SDS011;9441;51.420;7.036;2024-02-14T01:27:06;9.47;;;4.00;;
18623;SDS011;9441;51.420;7.036;2024-02-14T01:28:08;7.07;;;3.37;;
18623;SDS011;9441;51.420;7.036;2024-02-14T01:29:09;8.10;;;3.77;;
18623;SDS011;9441;51.420;7.036;2024-02-14T01:30:12;5.70;;;3.33;;
18623;SDS011;9441;51.420;7.036;2024-02-14T01:31:13;8.07;;;3.63;;
18623;SDS011;9441;51.420;7.036;2024-02-14T01:32:15;8.23;;;3.60;;
18623;SDS011;9441;51.420;7.036;2024-02-14T01:33:17;13.30;;;3.40;;
18623;SDS011;9441;51.420;7.036;2024-02-14T01:34:19;8.70;;;3.53;;
18623;SDS011;9441;51.420;7.036;2024-02-14T01:35:20;9.97;;;3.60;;
18623;SDS011;9441;51.420;7.036;2024-02-14T01:36:24;6.73;;;3.20;;
18623;SDS011;9441;51.420;7.036;2024-02-14T01:37:25;7.30;;;3.63;;
18623;SDS011;9441;51.420;7.036;2024-02-14T01:38:26;8.07;;;3.33;;
18623;SDS011;9441;51.420;7.036;2024-02-14T01:39:28;7.13;;;3.50;;
18623;SDS011;9441;51.420;7.036;2024-02-14T01:40:29;6.83;;;3.60;;
18623;SDS011;9441;51.420;7.036;2024-02-14T01:41:38;6.67;;;3.17;;
18623;SDS011;9441;51.420;7.036;2024-02-14T01:42:39;6.10;;;3.60;;
18623;SDS011;9441;51.420;7.036;2024-02-14T01:43:41;5.70;;;3.20;;
18623;SDS011;9441;51.420;7.036;2024-02-14T01:44:42;8.07;;;3.30;;
18623;SDS011;9441;51.420;7.036;2024-02-14T01:45:44;4.90;;;3.03;;
18623;SDS011;9441;51.420;7.036;2024-02-14T01:46:49;4.60;;;2.87;;
18623;SDS011;9441;51.420;7.036;2024-02-14T01:47:51;6.73;;;3.17;;
18623;SDS011;9441;51.420;7.036;2024-02-14T01:48:52;4.93;;;3.00;;
18623;SDS011;9441;51.420;7.036;2024-02-14T01:49:54;7.87;;;3.20;;
18623;SDS011;9441;51.420;7.036;2024-02-14T01:50:55;9.57;;;3.30;;
18623;SDS011;9441;51.420;7.036;2024-02-14T01:52:00;9.47;;;3.00;;
18623;SDS011;9441;51.420;7.036;2024-02-14T01:53:03;4.93;;;3.20;;
18623;SDS011;9441;51.420;7.036;2024-02-14T01:54:06;8.67;;;2.90;;
18623;SDS011;9441;51.420;7.036;2024-02-14T01:55:08;7.63;;;3.10;;
18623;SDS011;9441;51.420;7.036;2024-02-14T01:56:10;4.40;;;3.37;;
18623;SDS011;9441;51.420;7.036;2024-02-14T01:57:13;3.77;;;2.70;;
18623;SDS011;9441;51.420;7.036;2024-02-14T01:58:14;8.53;;;3.47;;
18623;SDS011;9441;51.420;7.036;2024-02-14T01:59:16;8.60;;;2.70;;
18623;SDS011;9441;51.420;7.036;2024-02-14T02:00:18;8.20;;;2.80;;
18623;SDS011;9441;51.420;7.036;2024-02-14T02:01:20;9.87;;;3.30;;
18623;SDS011;9441;51.420;7.036;2024-02-14T02:02:23;10.50;;;3.70;;
18623;SDS011;9441;51.420;7.036;2024-02-14T02:03:28;6.03;;;3.10;;
18623;SDS011;9441;51.420;7.036;2024-02-14T02:04:29;4.47;;;3.00;;
18623;SDS011;9441;51.420;7.036;2024-02-14T02:05:31;5.63;;;2.83;;
18623;SDS011;9441;51.420;7.036;2024-02-14T02:06:32;7.80;;;2.60;;
18623;SDS011;9441;51.420;7.036;2024-02-14T02:07:35;7.60;;;3.17;;
18623;SDS011;9441;51.420;7.036;2024-02-14T02:08:39;8.93;;;3.60;;
18623;SDS011;9441;51.420;7.036;2024-02-14T02:09:44;4.40;;;2.80;;
18623;SDS011;9441;51.420;7.036;2024-02-14T02:10:45;6.50;;;2.70;;
18623;SDS011;9441;51.420;7.036;2024-02-14T02:12:07;4.70;;;2.70;;
18623;SDS011;9441;51.420;7.036;2024-02-14T02:13:28;4.87;;;2.90;;
18623;SDS011;9441;51.420;7.036;2024-02-14T02:14:50;7.40;;;2.80;;
18623;SDS011;9441;51.420;7.036;2024-02-14T02:16:11;4.03;;;2.77;;
18623;SDS011;9441;51.420;7.036;2024-02-14T02:17:35;4.63;;;2.70;;
18623;SDS011;9441;51.420;7.036;2024-02-14T02:18:56;7.93;;;3.73;;
18623;SDS011;9441;51.420;7.036;2024-02-14T02:20:18;4.03;;;2.57;;
18623;SDS011;9441;51.420;7.036;2024-02-14T02:21:20;5.63;;;2.40;;
18623;SDS011;9441;51.420;7.036;2024-02-14T02:22:24;9.57;;;2.80;;
18623;SDS011;9441;51.420;7.036;2024-02-14T02:23:47;6.80;;;2.53;;
18623;SDS011;9441;51.420;7.036;2024-02-14T02:24:49;5.70;;;2.80;;
18623;SDS011;9441;51.420;7.036;2024-02-14T02:25:51;3.77;;;2.50;;
18623;SDS011;9441;51.420;7.036;2024-02-14T02:27:13;6.07;;;2.40;;
18623;SDS011;9441;51.420;7.036;2024-02-14T02:28:36;4.53;;;2.50;;
18623;SDS011;9441;51.420;7.036;2024-02-14T02:29:40;4.10;;;2.17;;
18623;SDS011;9441;51.420;7.036;2024-02-14T02:30:41;4.60;;;2.60;;
18623;SDS011;9441;51.420;7.036;2024-02-14T02:31:43;5.53;;;2.50;;
18623;SDS011;9441;51.420;7.036;2024-02-14T02:32:44;6.23;;;2.77;;
18623;SDS011;9441;51.420;7.036;2024-02-14T02:33:46;4.23;;;2.60;;
18623;SDS011;9441;51.420;7.036;2024-02-14T02:34:47;5.87;;;2.20;;
18623;SDS011;9441;51.420;7.036;2024-02-14T02:35:50;6.07;;;2.63;;
18623;SDS011;9441;51.420;7.036;2024-02-14T02:37:11;6.50;;;2.73;;
18623;SDS011;9441;51.420;7.036;2024-02-14T02:38:44;4.37;;;2.50;;
18623;SDS011;9441;51.420;7.036;2024-02-14T02:40:08;4.83;;;2.60;;
18623;SDS011;9441;51.420;7.036;2024-02-14T02:41:33;4.90;;;2.23;;
18623;SDS011;9441;51.420;7.036;2024-02-14T02:42:54;7.13;;;2.80;;
18623;SDS011;9441;51.420;7.036;2024-02-14T02:44:15;4.23;;;2.50;;
18623;SDS011;9441;51.420;7.036;2024-02-14T02:45:37;3.63;;;2.40;;
18623;SDS011;9441;51.420;7.036;2024-02-14T02:46:59;5.17;;;2.90;;
18623;SDS011;9441;51.420;7.036;2024-02-14T02:48:21;4.40;;;2.70;;
18623;SDS011;9441;51.420;7.036;2024-02-14T02:49:31;4.07;;;2.63;;
18623;SDS011;9441;51.420;7.036;2024-02-14T02:50:35;7.87;;;2.50;;
18623;SDS011;9441;51.420;7.036;2024-02-14T02:51:57;3.40;;;2.37;;
18623;SDS011;9441;51.420;7.036;2024-02-14T02:53:16;3.90;;;2.30;;
18623;SDS011;9441;51.420;7.036;2024-02-14T02:54:38;5.17;;;2.53;;
18623;SDS011;9441;51.420;7.036;2024-02-14T02:55:59;4.57;;;2.40;;
18623;SDS011;9441;51.420;7.036;2024-02-14T02:57:00;3.73;;;2.40;;
18623;SDS011;9441;51.420;7.036;2024-02-14T02:58:03;4.33;;;2.00;;
18623;SDS011;9441;51.420;7.036;2024-02-14T02:59:06;6.00;;;2.40;;
18623;SDS011;9441;51.420;7.036;2024-02-14T03:00:08;5.60;;;2.47;;
18623;SDS011;9441;51.420;7.036;2024-02-14T03:01:21;3.63;;;2.03;;
18623;SDS011;9441;51.420;7.036;2024-02-14T03:02:44;8.57;;;2.50;;
18623;SDS011;9441;51.420;7.036;2024-02-14T03:03:51;4.63;;;2.40;;
18623;SDS011;9441;51.420;7.036;2024-02-14T03:05:12;4.27;;;2.37;;
18623;SDS011;9441;51.420;7.036;2024-02-14T03:06:38;5.97;;;2.30;;
18623;SDS011;9441;51.420;7.036;2024-02-14T03:07:54;3.37;;;2.20;;
18623;SDS011;9441;51.420;7.036;2024-02-14T03:09:18;4.03;;;2.60;;
18623;SDS011;9441;51.420;7.036;2024-02-14T03:10:21;4.00;;;2.40;;
18623;SDS011;9441;51.420;7.036;2024-02-14T03:11:46;4.57;;;2.20;;
18623;SDS011;9441;51.420;7.036;2024-02-14T03:13:07;4.10;;;2.20;;
18623;SDS011;9441;51.420;7.036;2024-02-14T03:14:32;5.80;;;2.30;;
18623;SDS011;9441;51.420;7.036;2024-02-14T03:15:53;4.67;;;2.13;;
18623;SDS011;9441;51.420;7.036;2024-02-14T03:16:56;3.47;;;2.40;;
18623;SDS011;9441;51.420;7.036;2024-02-14T03:17:59;5.47;;;2.23;;
18623;SDS011;9441;51.420;7.036;2024-02-14T03:19:01;5.27;;;2.30;;
18623;SDS011;9441;51.420;7.036;2024-02-14T03:20:04;3.13;;;2.07;;
18623;SDS011;9441;51.420;7.036;2024-02-14T03:21:10;3.57;;;2.50;;
18623;SDS011;9441;51.420;7.036;2024-02-14T03:22:12;7.10;;;2.30;;
18623;SDS011;9441;51.420;7.036;2024-02-14T03:23:14;6.87;;;2.30;;
18623;SDS011;9441;51.420;7.036;2024-02-14T03:24:15;6.50;;;2.20;;
18623;SDS011;9441;51.420;7.036;2024-02-14T03:25:18;2.80;;;2.10;;
18623;SDS011;9441;51.420;7.036;2024-02-14T03:26:27;5.77;;;2.07;;
18623;SDS011;9441;51.420;7.036;2024-02-14T03:27:30;2.97;;;2.10;;
18623;SDS011;9441;51.420;7.036;2024-02-14T03:28:32;4.40;;;1.90;;
18623;SDS011;9441;51.420;7.036;2024-02-14T03:29:34;5.67;;;2.20;;
18623;SDS011;9441;51.420;7.036;2024-02-14T03:30:35;5.77;;;2.47;;
18623;SDS011;9441;51.420;7.036;2024-02-14T03:31:39;5.97;;;2.00;;
18623;SDS011;9441;51.420;7.036;2024-02-14T03:32:40;4.10;;;2.33;;
18623;SDS011;9441;51.420;7.036;2024-02-14T03:33:42;3.93;;;1.90;;
18623;SDS011;9441;51.420;7.036;2024-02-14T03:34:44;2.10;;;1.90;;
18623;SDS011;9441;51.420;7.036;2024-02-14T03:35:46;5.27;;;1.90;;
18623;SDS011;9441;51.420;7.036;2024-02-14T03:36:48;4.60;;;2.50;;
18623;SDS011;9441;51.420;7.036;2024-02-14T03:37:51;3.00;;;1.93;;
18623;SDS011;9441;51.420;7.036;2024-02-14T03:38:53;2.87;;;2.10;;
18623;SDS011;9441;51.420;7.036;2024-02-14T03:39:55;5.03;;;2.20;;
18623;SDS011;9441;51.420;7.036;2024-02-14T03:40:57;5.07;;;1.93;;
18623;SDS011;9441;51.420;7.036;2024-02-14T03:41:59;2.97;;;1.90;;
18623;SDS011;9441;51.420;7.036;2024-02-14T03:43:04;5.23;;;2.37;;
18623;SDS011;9441;51.420;7.036;2024-02-14T03:44:06;2.83;;;2.00;;
18623;SDS011;9441;51.420;7.036;2024-02-14T03:45:09;4.10;;;2.30;;
18623;SDS011;9441;51.420;7.036;2024-02-14T03:46:11;3.83;;;2.00;;
18623;SDS011;9441;51.420;7.036;2024-02-14T03:47:13;9.07;;;2.30;;
18623;SDS011;9441;51.420;7.036;2024-02-14T03:48:15;2.83;;;2.10;;
18623;SDS011;9441;51.420;7.036;2024-02-14T03:49:17;4.67;;;2.33;;
18623;SDS011;9441;51.420;7.036;2024-02-14T03:50:20;4.10;;;2.30;;
18623;SDS011;9441;51.420;7.036;2024-02-14T03:51:22;3.70;;;2.27;;
18623;SDS011;9441;51.420;7.036;2024-02-14T03:52:24;4.17;;;2.00;;
18623;SDS011;9441;51.420;7.036;2024-02-14T03:53:26;4.00;;;2.10;;
18623;SDS011;9441;51.420;7.036;2024-02-14T03:54:27;3.10;;;1.87;;
18623;SDS011;9441;51.420;7.036;2024-02-14T03:55:29;3.80;;;2.20;;
18623;SDS011;9441;51.420;7.036;2024-02-14T03:56:30;2.97;;;2.30;;
18623;SDS011;9441;51.420;7.036;2024-02-14T03:57:33;3.93;;;2.30;;
18623;SDS011;9441;51.420;7.036;2024-02-14T03:58:40;7.60;;;2.50;;
18623;SDS011;9441;51.420;7.036;2024-02-14T03:59:42;3.50;;;2.30;;
18623;SDS011;9441;51.420;7.036;2024-02-14T04:00:43;3.93;;;2.53;;
18623;SDS011;9441;51.420;7.036;2024-02-14T04:01:48;2.40;;;2.10;;
18623;SDS011;9441;51.420;7.036;2024-02-14T04:02:51;4.30;;;2.50;;
18623;SDS011;9441;51.420;7.036;2024-02-14T04:03:59;4.10;;;2.60;;
18623;SDS011;9441;51.420;7.036;2024-02-14T04:05:00;6.20;;;2.30;;
18623;SDS011;9441;51.420;7.036;2024-02-14T04:06:04;3.77;;;2.37;;
18623;SDS011;9441;51.420;7.036;2024-02-14T04:07:05;2.87;;;2.30;;
18623;SDS011;9441;51.420;7.036;2024-02-14T04:08:08;5.73;;;2.50;;
18623;SDS011;9441;51.420;7.036;2024-02-14T04:09:10;4.47;;;3.07;;
18623;SDS011;9441;51.420;7.036;2024-02-14T04:10:12;5.33;;;2.50;;
18623;SDS011;9441;51.420;7.036;2024-02-14T04:11:14;3.87;;;2.50;;
18623;SDS011;9441;51.420;7.036;2024-02-14T04:12:16;6.57;;;2.60;;
18623;SDS011;9441;51.420;7.036;2024-02-14T04:13:17;8.20;;;2.40;;
18623;SDS011;9441;51.420;7.036;2024-02-14T04:14:20;3.30;;;2.67;;
18623;SDS011;9441;51.420;7.036;2024-02-14T04:15:21;5.10;;;2.30;;
18623;SDS011;9441;51.420;7.036;2024-02-14T04:16:26;3.70;;;2.30;;
18623;SDS011;9441;51.420;7.036;2024-02-14T04:17:31;5.30;;;2.70;;
18623;SDS011;9441;51.420;7.036;2024-02-14T04:18:32;4.07;;;2.60;;
18623;SDS011;9441;51.420;7.036;2024-02-14T04:19:34;6.67;;;2.63;;
18623;SDS011;9441;51.420;7.036;2024-02-14T04:20:35;4.23;;;2.70;;
18623;SDS011;9441;51.420;7.036;2024-02-14T04:21:37;7.50;;;2.70;;
18623;SDS011;9441;51.420;7.036;2024-02-14T04:22:38;4.87;;;2.47;;
18623;SDS011;9441;51.420;7.036;2024-02-14T04:23:40;4.53;;;2.70;;
18623;SDS011;9441;51.420;7.036;2024-02-14T04:24:41;4.17;;;2.67;;
18623;SDS011;9441;51.420;7.036;2024-02-14T04:25:42;3.93;;;2.50;;
18623;SDS011;9441;51.420;7.036;2024-02-14T04:26:44;5.23;;;2.37;;
18623;SDS011;9441;51.420;7.036;2024-02-14T04:27:45;3.57;;;2.50;;
18623;SDS011;9441;51.420;7.036;2024-02-14T04:28:47;4.87;;;2.50;;
18623;SDS011;9441;51.420;7.036;2024-02-14T04:29:49;2.87;;;2.53;;
18623;SDS011;9441;51.420;7.036;2024-02-14T04:30:51;3.03;;;2.63;;
18623;SDS011;9441;51.420;7.036;2024-02-14T04:31:59;3.90;;;2.70;;
18623;SDS011;9441;51.420;7.036;2024-02-14T04:33:01;6.50;;;2.83;;
18623;SDS011;9441;51.420;7.036;2024-02-14T04:34:02;5.77;;;2.50;;
18623;SDS011;9441;51.420;7.036;2024-02-14T04:35:03;3.40;;;2.50;;
18623;SDS011;9441;51.420;7.036;2024-02-14T04:36:07;7.00;;;2.63;;
18623;SDS011;9441;51.420;7.036;2024-02-14T04:37:08;3.40;;;2.50;;
18623;SDS011;9441;51.420;7.036;2024-02-14T04:38:13;6.23;;;2.63;;
18623;SDS011;9441;51.420;7.036;2024-02-14T04:39:15;4.53;;;2.90;;
18623;SDS011;9441;51.420;7.036;2024-02-14T04:40:17;4.20;;;2.83;;
18623;SDS011;9441;51.420;7.036;2024-02-14T04:41:18;3.90;;;2.90;;
18623;SDS011;9441;51.420;7.036;2024-02-14T04:42:20;9.40;;;3.37;;
18623;SDS011;9441;51.420;7.036;2024-02-14T04:43:22;4.93;;;2.57;;
18623;SDS011;9441;51.420;7.036;2024-02-14T04:44:23;5.60;;;2.70;;
18623;SDS011;9441;51.420;7.036;2024-02-14T04:45:26;4.43;;;2.57;;
18623;SDS011;9441;51.420;7.036;2024-02-14T04:46:34;4.83;;;2.83;;
18623;SDS011;9441;51.420;7.036;2024-02-14T04:47:38;3.77;;;2.83;;
18623;SDS011;9441;51.420;7.036;2024-02-14T04:48:39;6.63;;;3.00;;
18623;SDS011;9441;51.420;7.036;2024-02-14T04:49:42;4.00;;;2.70;;
18623;SDS011;9441;51.420;7.036;2024-02-14T04:50:43;5.30;;;2.90;;
18623;SDS011;9441;51.420;7.036;2024-02-14T04:51:45;6.87;;;3.07;;
18623;SDS011;9441;51.420;7.036;2024-02-14T04:52:46;5.07;;;2.63;;
18623;SDS011;9441;51.420;7.036;2024-02-14T04:53:48;5.93;;;2.80;;
18623;SDS011;9441;51.420;7.036;2024-02-14T04:54:49;5.90;;;3.00;;
18623;SDS011;9441;51.420;7.036;2024-02-14T04:55:51;4.40;;;2.83;;
18623;SDS011;9441;51.420;7.036;2024-02-14T04:56:53;4.30;;;3.00;;
18623;SDS011;9441;51.420;7.036;2024-02-14T04:57:55;3.47;;;2.60;;
18623;SDS011;9441;51.420;7.036;2024-02-14T04:58:57;9.43;;;3.30;;
18623;SDS011;9441;51.420;7.036;2024-02-14T04:59:59;5.47;;;3.10;;
18623;SDS011;9441;51.420;7.036;2024-02-14T05:01:02;5.57;;;3.00;;
18623;SDS011;9441;51.420;7.036;2024-02-14T05:02:04;4.83;;;3.10;;
18623;SDS011;9441;51.420;7.036;2024-02-14T05:03:05;3.63;;;2.90;;
18623;SDS011;9441;51.420;7.036;2024-02-14T05:04:06;5.07;;;3.20;;
18623;SDS011;9441;51.420;7.036;2024-02-14T05:05:08;8.90;;;3.63;;
18623;SDS011;9441;51.420;7.036;2024-02-14T05:06:17;4.97;;;2.60;;
18623;SDS011;9441;51.420;7.036;2024-02-14T05:07:18;4.03;;;3.00;;
18623;SDS011;9441;51.420;7.036;2024-02-14T05:08:20;4.20;;;2.73;;
18623;SDS011;9441;51.420;7.036;2024-02-14T05:09:21;5.03;;;2.87;;
18623;SDS011;9441;51.420;7.036;2024-02-14T05:10:23;5.53;;;3.27;;
18623;SDS011;9441;51.420;7.036;2024-02-14T05:11:24;4.57;;;2.80;;
18623;SDS011;9441;51.420;7.036;2024-02-14T05:12:26;7.23;;;2.90;;
18623;SDS011;9441;51.420;7.036;2024-02-14T05:13:27;6.87;;;2.83;;
18623;SDS011;9441;51.420;7.036;2024-02-14T05:14:29;7.90;;;3.20;;
18623;SDS011;9441;51.420;7.036;2024-02-14T05:15:31;5.10;;;2.90;;
18623;SDS011;9441;51.420;7.036;2024-02-14T05:16:36;3.30;;;2.90;;
18623;SDS011;9441;51.420;7.036;2024-02-14T05:17:37;4.87;;;2.90;;
18623;SDS011;9441;51.420;7.036;2024-02-14T05:18:39;5.50;;;3.00;;
18623;SDS011;9441;51.420;7.036;2024-02-14T05:19:41;4.27;;;2.77;;
18623;SDS011;9441;51.420;7.036;2024-02-14T05:20:43;4.30;;;3.20;;
18623;SDS011;9441;51.420;7.036;2024-02-14T05:21:44;4.00;;;2.90;;
18623;SDS011;9441;51.420;7.036;2024-02-14T05:22:46;4.70;;;3.30;;
18623;SDS011;9441;51.420;7.036;2024-02-14T05:23:47;9.70;;;3.40;;
18623;SDS011;9441;51.420;7.036;2024-02-14T05:24:50;5.30;;;2.97;;
18623;SDS011;9441;51.420;7.036;2024-02-14T05:25:51;6.37;;;2.77;;
18623;SDS011;9441;51.420;7.036;2024-02-14T05:26:53;5.17;;;3.20;;
18623;SDS011;9441;51.420;7.036;2024-02-14T05:27:54;4.87;;;2.97;;
18623;SDS011;9441;51.420;7.036;2024-02-14T05:28:56;6.63;;;3.27;;
18623;SDS011;9441;51.420;7.036;2024-02-14T05:29:57;5.27;;;2.80;;
18623;SDS011;9441;51.420;7.036;2024-02-14T05:30:59;4.63;;;2.60;;
18623;SDS011;9441;51.420;7.036;2024-02-14T05:32:10;6.93;;;3.03;;
18623;SDS011;9441;51.420;7.036;2024-02-14T05:33:12;5.90;;;3.17;;
18623;SDS011;9441;51.420;7.036;2024-02-14T05:34:13;5.77;;;3.17;;
18623;SDS011;9441;51.420;7.036;2024-02-14T05:35:14;5.83;;;2.90;;
18623;SDS011;9441;51.420;7.036;2024-02-14T05:36:16;4.40;;;3.33;;
18623;SDS011;9441;51.420;7.036;2024-02-14T05:37:17;5.70;;;3.23;;
18623;SDS011;9441;51.420;7.036;2024-02-14T05:38:19;4.60;;;3.07;;
18623;SDS011;9441;51.420;7.036;2024-02-14T05:39:20;6.60;;;3.30;;
18623;SDS011;9441;51.420;7.036;2024-02-14T05:40:21;4.77;;;3.00;;
18623;SDS011;9441;51.420;7.036;2024-02-14T05:41:24;6.73;;;3.23;;
18623;SDS011;9441;51.420;7.036;2024-02-14T05:42:25;6.20;;;3.73;;
18623;SDS011;9441;51.420;7.036;2024-02-14T05:43:27;7.10;;;3.33;;
18623;SDS011;9441;51.420;7.036;2024-02-14T05:44:28;5.17;;;3.27;;
18623;SDS011;9441;51.420;7.036;2024-02-14T05:45:30;5.67;;;3.33;;
18623;SDS011;9441;51.420;7.036;2024-02-14T05:46:31;5.73;;;3.50;;
18623;SDS011;9441;51.420;7.036;2024-02-14T05:47:35;5.30;;;3.27;;
18623;SDS011;9441;51.420;7.036;2024-02-14T05:48:36;7.60;;;3.70;;
18623;SDS011;9441;51.420;7.036;2024-02-14T05:49:40;5.83;;;3.33;;
18623;SDS011;9441;51.420;7.036;2024-02-14T05:50:41;6.40;;;3.60;;
18623;SDS011;9441;51.420;7.036;2024-02-14T05:51:43;4.60;;;3.40;;
18623;SDS011;9441;51.420;7.036;2024-02-14T05:52:44;4.70;;;3.40;;
18623;SDS011;9441;51.420;7.036;2024-02-14T05:53:46;5.63;;;3.60;;
18623;SDS011;9441;51.420;7.036;2024-02-14T05:54:47;6.47;;;3.57;;
18623;SDS011;9441;51.420;7.036;2024-02-14T05:55:49;6.80;;;3.40;;
18623;SDS011;9441;51.420;7.036;2024-02-14T05:56:50;5.57;;;3.50;;
18623;SDS011;9441;51.420;7.036;2024-02-14T05:57:53;6.43;;;3.43;;
18623;SDS011;9441;51.420;7.036;2024-02-14T05:58:54;9.27;;;3.40;;
18623;SDS011;9441;51.420;7.036;2024-02-14T05:59:55;4.33;;;3.40;;
18623;SDS011;9441;51.420;7.036;2024-02-14T06:00:57;7.27;;;4.20;;
18623;SDS011;9441;51.420;7.036;2024-02-14T06:01:58;6.33;;;3.33;;
18623;SDS011;9441;51.420;7.036;2024-02-14T06:03:04;6.63;;;3.27;;
18623;SDS011;9441;51.420;7.036;2024-02-14T06:04:06;6.70;;;3.47;;
18623;SDS011;9441;51.420;7.036;2024-02-14T06:05:08;7.27;;;3.57;;
18623;SDS011;9441;51.420;7.036;2024-02-14T06:06:09;5.53;;;3.30;;
18623;SDS011;9441;51.420;7.036;2024-02-14T06:07:12;5.67;;;3.60;;
18623;SDS011;9441;51.420;7.036;2024-02-14T06:08:12;5.97;;;3.23;;
18623;SDS011;9441;51.420;7.036;2024-02-14T06:09:14;6.63;;;3.40;;
18623;SDS011;9441;51.420;7.036;2024-02-14T06:10:16;5.57;;;3.53;;
18623;SDS011;9441;51.420;7.036;2024-02-14T06:11:19;7.57;;;4.00;;
18623;SDS011;9441;51.420;7.036;2024-02-14T06:12:21;5.10;;;3.67;;
18623;SDS011;9441;51.420;7.036;2024-02-14T06:13:23;5.30;;;3.80;;
18623;SDS011;9441;51.420;7.036;2024-02-14T06:14:24;7.53;;;3.87;;
18623;SDS011;9441;51.420;7.036;2024-02-14T06:15:26;6.57;;;3.63;;
18623;SDS011;9441;51.420;7.036;2024-02-14T06:16:27;9.83;;;4.30;;
18623;SDS011;9441;51.420;7.036;2024-02-14T06:17:29;7.30;;;4.17;;
18623;SDS011;9441;51.420;7.036;2024-02-14T06:18:31;5.27;;;4.17;;
18623;SDS011;9441;51.420;7.036;2024-02-14T06:19:34;10.27;;;4.07;;
18623;SDS011;9441;51.420;7.036;2024-02-14T06:20:36;7.03;;;4.30;;
18623;SDS011;9441;51.420;7.036;2024-02-14T06:21:39;7.93;;;3.90;;
18623;SDS011;9441;51.420;7.036;2024-02-14T06:22:41;9.00;;;4.40;;
18623;SDS011;9441;51.420;7.036;2024-02-14T06:23:42;8.77;;;4.37;;
18623;SDS011;9441;51.420;7.036;2024-02-14T06:24:46;7.60;;;4.10;;
18623;SDS011;9441;51.420;7.036;2024-02-14T06:25:48;8.90;;;4.27;;
18623;SDS011;9441;51.420;7.036;2024-02-14T06:26:50;6.80;;;4.27;;
18623;SDS011;9441;51.420;7.036;2024-02-14T06:27:51;6.00;;;4.53;;
18623;SDS011;9441;51.420;7.036;2024-02-14T06:28:54;7.60;;;4.67;;
18623;SDS011;9441;51.420;7.036;2024-02-14T06:29:55;8.60;;;4.83;;
18623;SDS011;9441;51.420;7.036;2024-02-14T06:30:57;7.33;;;4.37;;
18623;SDS011;9441;51.420;7.036;2024-02-14T06:31:58;9.30;;;4.50;;